createdAt,value
2022-08-21T00:00:59.032Z,17.97
2022-08-21T00:03:56.862Z,17.97
2022-08-21T00:06:55.657Z,17.97
2022-08-21T00:09:53.113Z,17.96
2022-08-21T00:12:50.754Z,17.97
2022-08-21T00:15:48.347Z,17.98
2022-08-21T00:18:45.873Z,17.97
2022-08-21T00:21:44.748Z,17.97
2022-08-21T00:24:42.734Z,17.98
2022-08-21T00:27:40.259Z,17.98
2022-08-21T00:30:37.763Z,17.98
2022-08-21T00:33:35.240Z,17.98
2022-08-21T00:36:32.706Z,17.98
2022-08-21T00:39:30.198Z,17.98
2022-08-21T00:42:27.674Z,17.98
2022-08-21T00:45:25.178Z,17.98
2022-08-21T00:48:22.686Z,17.99
2022-08-21T00:51:23.514Z,17.99
2022-08-21T00:54:21.017Z,17.99
2022-08-21T00:57:18.917Z,17.99
2022-08-21T01:00:16.574Z,17.99
2022-08-21T01:03:15.413Z,17.99
2022-08-21T01:06:12.908Z,18.00
2022-08-21T01:09:10.588Z,18.01
2022-08-21T01:12:08.077Z,18.02
2022-08-21T01:15:05.795Z,18.03
2022-08-21T01:18:03.284Z,18.07
2022-08-21T01:21:00.809Z,18.10
2022-08-21T01:23:58.269Z,18.14
2022-08-21T01:26:55.752Z,18.16
2022-08-21T01:29:53.202Z,18.18
2022-08-21T01:32:50.741Z,18.20
2022-08-21T01:35:48.286Z,18.23
2022-08-21T01:38:45.761Z,18.25
2022-08-21T01:41:43.220Z,18.27
2022-08-21T01:44:41.056Z,18.28
2022-08-21T01:47:38.537Z,18.28
2022-08-21T01:50:36.033Z,18.28
2022-08-21T01:53:35.065Z,18.28
2022-08-21T01:56:32.570Z,18.28
2022-08-21T01:59:30.063Z,18.28
2022-08-21T02:02:27.861Z,18.26
2022-08-21T02:05:25.336Z,18.25
2022-08-21T02:08:24.406Z,18.23
2022-08-21T02:11:21.894Z,18.22
2022-08-21T02:14:32.361Z,18.21
2022-08-21T02:17:30.371Z,18.20
2022-08-21T02:20:27.895Z,18.19
2022-08-21T02:23:27.246Z,18.18
2022-08-21T02:26:25.213Z,18.18
2022-08-21T02:29:22.674Z,18.17
2022-08-21T02:32:20.280Z,18.16
2022-08-21T02:35:17.747Z,18.15
2022-08-21T02:38:15.251Z,18.13
2022-08-21T02:41:12.727Z,18.12
2022-08-21T02:44:10.243Z,18.12
2022-08-21T02:47:07.746Z,18.12
2022-08-21T02:50:05.212Z,18.11
2022-08-21T02:53:02.709Z,18.10
2022-08-21T02:56:00.179Z,18.09
2022-08-21T02:58:57.681Z,18.09
2022-08-21T03:01:55.231Z,18.09
2022-08-21T03:04:52.713Z,18.09
2022-08-21T03:07:50.192Z,18.08
2022-08-21T03:10:47.659Z,18.06
2022-08-21T03:13:45.139Z,18.05
2022-08-21T03:16:43.318Z,18.06
2022-08-21T03:19:40.781Z,18.04
2022-08-21T03:22:38.269Z,18.05
2022-08-21T03:25:40.377Z,18.04
2022-08-21T03:28:38.613Z,18.03
2022-08-21T03:31:36.091Z,18.01
2022-08-21T03:34:33.594Z,17.98
2022-08-21T03:37:31.086Z,17.96
2022-08-21T03:40:28.714Z,17.93
2022-08-21T03:43:26.200Z,17.90
2022-08-21T03:46:24.741Z,17.88
2022-08-21T03:49:22.281Z,17.87
2022-08-21T03:52:19.918Z,17.86
2022-08-21T03:55:17.403Z,17.85
2022-08-21T03:58:16.682Z,17.83
2022-08-21T04:01:14.871Z,17.82
2022-08-21T04:04:12.361Z,17.82
2022-08-21T04:07:11.311Z,17.80
2022-08-21T04:10:08.827Z,17.81
2022-08-21T04:13:06.299Z,17.79
2022-08-21T04:16:03.813Z,17.79
2022-08-21T04:19:03.796Z,17.80
2022-08-21T04:22:01.289Z,17.79
2022-08-21T04:25:00.199Z,17.79
2022-08-21T04:27:58.371Z,17.80
2022-08-21T04:30:56.873Z,17.80
2022-08-21T04:33:54.338Z,17.81
2022-08-21T04:36:51.806Z,17.81
2022-08-21T04:39:53.433Z,17.81
2022-08-21T04:42:51.613Z,17.82
2022-08-21T04:45:49.245Z,17.84
2022-08-21T04:48:46.731Z,17.85
2022-08-21T04:51:44.206Z,17.86
2022-08-21T04:54:41.701Z,17.87
2022-08-21T04:57:48.726Z,17.90
2022-08-21T05:00:46.995Z,17.92
2022-08-21T05:03:44.483Z,17.93
2022-08-21T05:06:43.019Z,17.96
2022-08-21T05:09:40.492Z,17.98
2022-08-21T05:12:37.971Z,18.00
2022-08-21T05:15:35.908Z,18.03
2022-08-21T05:18:33.395Z,18.06
2022-08-21T05:21:31.004Z,18.09
2022-08-21T05:24:31.166Z,18.13
2022-08-21T05:27:31.574Z,18.20
2022-08-21T05:30:29.269Z,18.26
2022-08-21T05:33:26.746Z,18.32
2022-08-21T05:36:24.253Z,18.37
2022-08-21T05:39:22.087Z,18.39
2022-08-21T05:42:19.583Z,18.43
2022-08-21T05:45:17.064Z,18.47
2022-08-21T05:48:34.485Z,18.51
2022-08-21T05:51:32.389Z,18.55
2022-08-21T05:54:29.855Z,18.60
2022-08-21T05:57:27.529Z,18.66
2022-08-21T06:00:25.157Z,18.70
2022-08-21T06:03:22.662Z,18.76
2022-08-21T06:06:20.142Z,18.83
2022-08-21T06:09:17.619Z,18.90
2022-08-21T06:12:15.076Z,18.97
2022-08-21T06:15:12.563Z,19.04
2022-08-21T06:18:10.052Z,19.09
2022-08-21T06:21:07.537Z,19.14
2022-08-21T06:24:05.862Z,19.20
2022-08-21T06:27:03.330Z,19.25
2022-08-21T06:30:00.789Z,19.32
2022-08-21T06:32:58.745Z,19.36
2022-08-21T06:35:56.375Z,19.40
2022-08-21T06:38:53.883Z,19.42
2022-08-21T06:41:54.590Z,19.45
2022-08-21T06:44:52.054Z,19.45
2022-08-21T06:47:49.529Z,19.44
2022-08-21T06:50:46.985Z,19.42
2022-08-21T06:53:44.458Z,19.39
2022-08-21T06:56:41.946Z,19.35
2022-08-21T06:59:39.450Z,19.34
2022-08-21T07:02:37.841Z,19.33
2022-08-21T07:05:39.079Z,19.31
2022-08-21T07:08:36.579Z,19.28
2022-08-21T07:11:42.428Z,19.27
2022-08-21T07:14:45.606Z,19.27
2022-08-21T07:17:43.573Z,19.26
2022-08-21T07:20:41.056Z,19.25
2022-08-21T07:23:38.532Z,19.26
2022-08-21T07:26:36.053Z,19.27
2022-08-21T07:29:33.526Z,19.26
2022-08-21T07:32:31.009Z,19.25
2022-08-21T07:35:29.375Z,19.23
2022-08-21T07:38:26.843Z,19.22
2022-08-21T07:41:24.329Z,19.22
2022-08-21T07:44:21.790Z,19.24
2022-08-21T07:47:29.352Z,19.27
2022-08-21T07:50:36.704Z,19.29
2022-08-21T07:53:34.196Z,19.33
2022-08-21T07:56:31.671Z,19.38
2022-08-21T07:59:29.401Z,19.47
2022-08-21T08:02:26.863Z,19.57
2022-08-21T08:05:24.329Z,19.68
2022-08-21T08:08:21.828Z,19.79
2022-08-21T08:11:19.412Z,19.89
2022-08-21T08:14:18.338Z,20.00
2022-08-21T08:17:15.821Z,20.11
2022-08-21T08:20:13.617Z,20.21
2022-08-21T08:23:11.109Z,20.31
2022-08-21T08:26:08.673Z,20.49
2022-08-21T08:29:06.157Z,20.80
2022-08-21T08:32:03.632Z,21.17
2022-08-21T08:35:01.105Z,21.39
2022-08-21T08:37:58.584Z,21.46
2022-08-21T08:40:56.059Z,21.48
2022-08-21T08:43:53.548Z,21.54
2022-08-21T08:46:51.396Z,21.57
2022-08-21T08:49:51.191Z,21.50
2022-08-21T08:52:48.680Z,21.39
2022-08-21T08:55:46.158Z,21.26
2022-08-21T08:58:43.743Z,21.12
2022-08-21T09:01:41.288Z,20.99
2022-08-21T09:04:38.800Z,20.87
2022-08-21T09:07:36.356Z,20.79
2022-08-21T09:10:33.850Z,20.77
2022-08-21T09:13:33.395Z,20.88
2022-08-21T09:16:34.156Z,21.09
2022-08-21T09:19:31.648Z,21.36
2022-08-21T09:22:29.116Z,21.54
2022-08-21T09:25:26.703Z,21.65
2022-08-21T09:28:24.182Z,21.77
2022-08-21T09:31:21.721Z,21.89
2022-08-21T09:34:19.186Z,22.02
2022-08-21T09:37:16.662Z,22.17
2022-08-21T09:40:14.681Z,22.31
2022-08-21T09:43:12.185Z,22.37
2022-08-21T09:46:11.253Z,22.40
2022-08-21T09:49:14.858Z,22.52
2022-08-21T09:52:13.989Z,22.68
2022-08-21T09:55:31.546Z,22.82
2022-08-21T09:58:29.028Z,22.92
2022-08-21T10:01:26.584Z,23.00
2022-08-21T10:04:24.130Z,23.00
2022-08-21T10:07:21.626Z,22.92
2022-08-21T10:10:19.108Z,22.81
2022-08-21T10:13:16.595Z,22.72
2022-08-21T10:16:14.082Z,22.63
2022-08-21T10:19:11.570Z,22.54
2022-08-21T10:22:09.057Z,22.41
2022-08-21T10:25:06.532Z,22.32
2022-08-21T10:28:04.024Z,22.27
2022-08-21T10:31:01.494Z,22.19
2022-08-21T10:33:58.961Z,22.06
2022-08-21T10:36:56.431Z,21.84
2022-08-21T10:39:53.952Z,21.61
2022-08-21T10:42:51.564Z,21.47
2022-08-21T10:45:49.290Z,21.38
2022-08-21T10:48:46.772Z,21.33
2022-08-21T10:51:44.248Z,21.28
2022-08-21T10:54:41.735Z,21.24
2022-08-21T10:57:39.236Z,21.18
2022-08-21T11:00:37.644Z,21.12
2022-08-21T11:03:35.273Z,21.05
2022-08-21T11:06:32.746Z,20.95
2022-08-21T11:09:30.238Z,20.92
2022-08-21T11:12:27.961Z,20.93
2022-08-21T11:15:29.662Z,21.01
2022-08-21T11:18:27.491Z,21.25
2022-08-21T11:21:25.017Z,21.60
2022-08-21T11:24:22.558Z,21.91
2022-08-21T11:27:20.038Z,22.16
2022-08-21T11:30:17.546Z,22.38
2022-08-21T11:33:20.851Z,22.53
2022-08-21T11:36:19.235Z,22.66
2022-08-21T11:39:16.784Z,22.82
2022-08-21T11:42:14.382Z,22.98
2022-08-21T11:45:11.865Z,23.12
2022-08-21T11:48:09.361Z,23.20
2022-08-21T11:51:06.858Z,23.22
2022-08-21T11:54:07.376Z,23.24
2022-08-21T11:57:05.073Z,23.26
2022-08-21T12:00:02.565Z,23.27
2022-08-21T12:03:00.193Z,23.32
2022-08-21T12:05:57.854Z,23.36
2022-08-21T12:08:55.351Z,23.44
2022-08-21T12:11:52.809Z,23.58
2022-08-21T12:14:50.294Z,23.60
2022-08-21T12:17:47.778Z,23.39
2022-08-21T12:20:50.611Z,23.13
2022-08-21T12:23:48.542Z,22.88
2022-08-21T12:26:46.011Z,22.66
2022-08-21T12:29:43.494Z,22.48
2022-08-21T12:32:40.948Z,22.31
2022-08-21T12:35:38.433Z,22.15
2022-08-21T12:38:35.918Z,22.00
2022-08-21T12:41:33.389Z,21.89
2022-08-21T12:44:30.884Z,21.77
2022-08-21T12:47:28.351Z,21.62
2022-08-21T12:50:25.856Z,21.46
2022-08-21T12:53:23.312Z,21.32
2022-08-21T12:56:20.956Z,21.23
2022-08-21T12:59:18.460Z,21.17
2022-08-21T13:02:15.999Z,21.14
2022-08-21T13:05:13.578Z,21.14
2022-08-21T13:08:11.953Z,21.12
2022-08-21T13:11:15.102Z,21.10
2022-08-21T13:14:12.913Z,21.09
2022-08-21T13:17:10.804Z,21.11
2022-08-21T13:20:09.008Z,21.12
2022-08-21T13:23:06.459Z,21.10
2022-08-21T13:26:04.546Z,21.07
2022-08-21T13:29:02.023Z,21.04
2022-08-21T13:31:59.773Z,20.99
2022-08-21T13:34:58.877Z,20.94
2022-08-21T13:37:56.374Z,20.92
2022-08-21T13:40:53.919Z,20.93
2022-08-21T13:43:51.389Z,20.92
2022-08-21T13:46:48.946Z,20.92
2022-08-21T13:49:47.845Z,20.93
2022-08-21T13:52:45.294Z,20.95
2022-08-21T13:55:42.766Z,20.97
2022-08-21T13:58:40.226Z,20.99
2022-08-21T14:01:37.783Z,21.06
2022-08-21T14:04:35.310Z,21.15
2022-08-21T14:07:33.478Z,21.23
2022-08-21T14:10:31.365Z,21.26
2022-08-21T14:13:28.820Z,21.25
2022-08-21T14:16:26.456Z,21.24
2022-08-21T14:19:23.929Z,21.20
2022-08-21T14:22:21.409Z,21.17
2022-08-21T14:25:19.379Z,21.17
2022-08-21T14:28:19.647Z,21.17
2022-08-21T14:31:17.524Z,21.17
2022-08-21T14:34:19.604Z,21.13
2022-08-21T14:37:17.849Z,21.10
2022-08-21T14:40:15.713Z,21.08
2022-08-21T14:43:13.218Z,21.06
2022-08-21T14:46:10.684Z,21.04
2022-08-21T14:49:08.700Z,21.03
2022-08-21T14:52:06.176Z,21.02
2022-08-21T14:55:03.646Z,20.99
2022-08-21T14:58:01.153Z,20.94
2022-08-21T15:00:59.204Z,20.89
2022-08-21T15:03:56.724Z,20.84
2022-08-21T15:06:54.226Z,20.82
2022-08-21T15:09:51.698Z,20.79
2022-08-21T15:12:49.173Z,20.76
2022-08-21T15:15:46.642Z,20.74
2022-08-21T15:18:44.132Z,20.72
2022-08-21T15:21:41.610Z,20.72
2022-08-21T15:24:39.101Z,20.70
2022-08-21T15:27:36.573Z,20.68
2022-08-21T15:30:34.050Z,20.66
2022-08-21T15:33:31.530Z,20.65
2022-08-21T15:36:28.982Z,20.61
2022-08-21T15:39:30.956Z,20.56
2022-08-21T15:42:29.208Z,20.54
2022-08-21T15:45:27.126Z,20.53
2022-08-21T15:48:24.625Z,20.52
2022-08-21T15:51:22.151Z,20.51
2022-08-21T15:54:19.632Z,20.50
2022-08-21T15:57:17.600Z,20.49
2022-08-21T16:00:15.432Z,20.49
2022-08-21T16:03:15.049Z,20.49
2022-08-21T16:06:12.528Z,20.47
2022-08-21T16:09:10.003Z,20.47
2022-08-21T16:12:07.509Z,20.45
2022-08-21T16:15:04.997Z,20.43
2022-08-21T16:18:02.512Z,20.40
2022-08-21T16:21:00.002Z,20.35
2022-08-21T16:23:57.499Z,20.29
2022-08-21T16:26:57.825Z,20.23
2022-08-21T16:29:56.061Z,20.18
2022-08-21T16:32:53.568Z,20.11
2022-08-21T16:35:51.063Z,20.05
2022-08-21T16:38:48.599Z,20.01
2022-08-21T16:41:46.082Z,19.98
2022-08-21T16:44:43.583Z,19.95
2022-08-21T16:47:46.300Z,19.95
2022-08-21T16:50:47.889Z,19.96
2022-08-21T16:53:48.105Z,19.97
2022-08-21T16:56:47.889Z,19.99
2022-08-21T16:59:45.660Z,19.99
2022-08-21T17:02:44.577Z,20.00
2022-08-21T17:05:43.079Z,20.00
2022-08-21T17:08:40.662Z,20.01
2022-08-21T17:11:38.548Z,20.01
2022-08-21T17:14:36.377Z,20.02
2022-08-21T17:17:33.842Z,20.03
2022-08-21T17:20:31.646Z,20.03
2022-08-21T17:23:29.284Z,20.03
2022-08-21T17:26:26.778Z,20.05
2022-08-21T17:29:24.287Z,20.04
2022-08-21T17:32:21.801Z,20.05
2022-08-21T17:35:19.298Z,20.04
2022-08-21T17:38:16.790Z,20.03
2022-08-21T17:41:14.292Z,20.04
2022-08-21T17:44:15.398Z,20.05
2022-08-21T17:47:15.957Z,20.04
2022-08-21T17:50:13.878Z,20.04
2022-08-21T17:53:11.344Z,20.03
2022-08-21T17:56:08.826Z,20.03
2022-08-21T17:59:06.860Z,20.03
2022-08-21T18:02:04.331Z,20.02
2022-08-21T18:05:07.292Z,20.01
2022-08-21T18:08:04.772Z,20.00
2022-08-21T18:11:02.286Z,19.99
2022-08-21T18:14:05.178Z,19.98
2022-08-21T18:17:04.348Z,19.96
2022-08-21T18:20:02.374Z,19.95
2022-08-21T18:23:00.106Z,19.94
2022-08-21T18:25:58.352Z,19.93
2022-08-21T18:28:58.908Z,19.91
2022-08-21T18:31:56.740Z,19.91
2022-08-21T18:34:54.513Z,19.90
2022-08-21T18:37:52.043Z,19.89
2022-08-21T18:40:53.771Z,19.88
2022-08-21T18:43:53.342Z,19.87
2022-08-21T18:46:51.009Z,19.87
2022-08-21T18:49:48.985Z,19.87
2022-08-21T18:52:52.884Z,19.87
2022-08-21T18:55:52.602Z,19.88
2022-08-21T18:58:51.402Z,19.88
2022-08-21T19:01:49.099Z,19.89
2022-08-21T19:04:48.127Z,19.89
2022-08-21T19:07:46.102Z,19.89
2022-08-21T19:10:43.922Z,19.88
2022-08-21T19:13:43.578Z,19.88
2022-08-21T19:16:41.155Z,19.88
2022-08-21T19:19:44.730Z,19.89
2022-08-21T19:22:43.191Z,19.89
2022-08-21T19:25:51.948Z,19.89
2022-08-21T19:28:49.983Z,19.88
2022-08-21T19:31:49.483Z,19.87
2022-08-21T19:34:48.024Z,19.87
2022-08-21T19:37:46.701Z,19.86
2022-08-21T19:40:46.768Z,19.85
2022-08-21T19:43:45.029Z,19.85
2022-08-21T19:46:42.965Z,19.84
2022-08-21T19:49:42.063Z,19.84
2022-08-21T19:52:39.959Z,19.83
2022-08-21T19:55:49.291Z,19.82
2022-08-21T19:58:50.036Z,19.81
2022-08-21T20:01:47.660Z,19.80
2022-08-21T20:04:53.985Z,19.79
2022-08-21T20:07:52.686Z,19.79
2022-08-21T20:10:51.591Z,19.80
2022-08-21T20:13:49.317Z,19.79
2022-08-21T20:16:47.821Z,19.79
2022-08-21T20:19:45.965Z,19.78
2022-08-21T20:22:46.285Z,19.77
2022-08-21T20:25:44.441Z,19.78
2022-08-21T20:28:42.281Z,19.79
2022-08-21T20:31:40.767Z,19.80
2022-08-21T20:34:38.359Z,19.81
2022-08-21T20:37:37.382Z,19.82
2022-08-21T20:40:35.801Z,19.82
2022-08-21T20:43:33.326Z,19.82
2022-08-21T20:46:30.800Z,19.83
2022-08-21T20:49:28.297Z,19.84
2022-08-21T20:52:26.175Z,19.84
2022-08-21T20:55:29.076Z,19.84
2022-08-21T20:58:29.716Z,19.83
2022-08-21T21:01:27.490Z,19.82
2022-08-21T21:04:24.953Z,19.81
2022-08-21T21:07:23.697Z,19.80
2022-08-21T21:10:21.821Z,19.78
2022-08-21T21:13:21.055Z,19.77
2022-08-21T21:16:18.545Z,19.74
2022-08-21T21:22:33.522Z,19.69
2022-08-21T21:25:40.110Z,19.67
2022-08-21T21:28:38.214Z,19.63
2022-08-21T21:31:36.672Z,19.57
2022-08-21T21:34:35.689Z,19.52
2022-08-21T21:37:35.075Z,19.48
2022-08-21T21:40:32.869Z,19.43
2022-08-21T21:43:31.168Z,19.38
2022-08-21T21:46:28.730Z,19.33
2022-08-21T21:49:26.292Z,19.27
2022-08-21T21:52:23.779Z,19.22
2022-08-21T21:55:23.599Z,19.17
2022-08-21T21:58:24.751Z,19.12
2022-08-21T22:01:23.954Z,19.07
2022-08-21T22:04:21.526Z,19.01
2022-08-21T22:07:21.317Z,18.96
2022-08-21T22:10:30.104Z,18.89
2022-08-21T22:13:28.553Z,18.82
2022-08-21T22:16:26.055Z,18.76
2022-08-21T22:19:24.081Z,18.72
2022-08-21T22:22:22.042Z,18.67
2022-08-21T22:25:20.338Z,18.63
2022-08-21T22:28:17.799Z,18.60
2022-08-21T22:31:22.881Z,18.56
2022-08-21T22:34:20.339Z,18.53
2022-08-21T22:37:20.458Z,18.50
2022-08-21T22:40:18.374Z,18.47
2022-08-21T22:43:16.143Z,18.44
2022-08-21T22:46:14.516Z,18.40
2022-08-21T22:49:12.392Z,18.37
2022-08-21T22:52:10.724Z,18.32
2022-08-21T22:55:08.443Z,18.28
2022-08-21T22:58:05.931Z,18.24
2022-08-21T23:01:03.606Z,18.19
2022-08-21T23:04:01.069Z,18.14
2022-08-21T23:06:58.525Z,18.10
2022-08-21T23:09:57.367Z,18.03
2022-08-21T23:12:55.903Z,17.97
2022-08-21T23:15:53.929Z,17.93
2022-08-21T23:18:51.459Z,17.88
2022-08-21T23:21:49.075Z,17.83
2022-08-21T23:24:49.641Z,17.79
2022-08-21T23:27:47.594Z,17.77
2022-08-21T23:30:45.124Z,17.74
2022-08-21T23:33:42.919Z,17.71
2022-08-21T23:36:58.190Z,17.68
2022-08-21T23:39:55.831Z,17.67
2022-08-21T23:42:53.318Z,17.63
2022-08-21T23:45:50.783Z,17.61
2022-08-21T23:48:48.266Z,17.57
2022-08-21T23:51:49.491Z,17.53
2022-08-21T23:54:48.086Z,17.52
2022-08-21T23:57:45.714Z,17.50
